createdAt,value
2017-04-06T03:00:56.024Z,54.63
2017-04-06T03:01:21.576Z,54.63
2017-04-06T03:01:47.152Z,54.53
2017-04-06T03:02:12.845Z,54.53
2017-04-06T03:02:38.404Z,54.63
2017-04-06T03:03:03.969Z,54.53
2017-04-06T03:03:29.520Z,54.53
2017-04-06T03:03:55.085Z,54.53
2017-04-06T03:04:20.643Z,54.53
2017-04-06T03:04:46.909Z,54.53
2017-04-06T03:05:12.537Z,54.63
2017-04-06T03:05:38.217Z,54.63
2017-04-06T03:06:03.757Z,54.91
2017-04-06T03:06:29.310Z,54.53
2017-04-06T03:06:54.857Z,54.53
2017-04-06T03:07:20.418Z,54.63
2017-04-06T03:07:46.090Z,54.53
2017-04-06T03:08:11.652Z,54.53
2017-04-06T03:08:37.232Z,54.53
2017-04-06T03:09:02.833Z,54.63
2017-04-06T03:09:28.426Z,54.53
2017-04-06T03:09:53.994Z,54.63
2017-04-06T03:10:19.556Z,55.01
2017-04-06T03:10:45.206Z,54.63
2017-04-06T03:11:10.768Z,54.63
2017-04-06T03:11:36.309Z,54.72
2017-04-06T03:12:01.853Z,54.72
2017-04-06T03:12:27.411Z,54.63
2017-04-06T03:12:52.975Z,54.72
2017-04-06T03:13:18.547Z,54.72
2017-04-06T03:13:44.089Z,54.63
2017-04-06T03:14:09.641Z,54.72
2017-04-06T03:14:35.196Z,54.53
2017-04-06T03:15:00.764Z,54.72
2017-04-06T03:15:26.341Z,54.63
2017-04-06T03:15:52.016Z,54.53
2017-04-06T03:16:17.582Z,54.91
2017-04-06T03:16:43.150Z,55.11
2017-04-06T03:17:08.711Z,54.72
2017-04-06T03:17:34.281Z,55.01
2017-04-06T03:17:59.844Z,55.4
2017-04-06T03:18:25.540Z,55.01
2017-04-06T03:18:51.109Z,54.43
2017-04-06T03:19:16.669Z,54.72
2017-04-06T03:19:42.337Z,54.63
2017-04-06T03:20:07.910Z,54.63
2017-04-06T03:20:33.502Z,54.72
2017-04-06T03:20:59.040Z,54.63
2017-04-06T03:21:24.608Z,54.72
2017-04-06T03:21:50.166Z,54.72
2017-04-06T03:22:15.719Z,54.63
2017-04-06T03:22:41.280Z,54.72
2017-04-06T03:23:06.864Z,54.63
2017-04-06T03:23:32.418Z,54.63
2017-04-06T03:23:57.961Z,54.53
2017-04-06T03:24:23.500Z,54.63
2017-04-06T03:24:49.027Z,54.72
2017-04-06T03:25:18.216Z,54.63
2017-04-06T03:25:43.766Z,54.72
2017-04-06T03:26:09.303Z,54.72
2017-04-06T03:26:34.848Z,54.72
2017-04-06T03:27:00.395Z,54.82
2017-04-06T03:27:25.948Z,54.72
2017-04-06T03:27:51.500Z,54.63
2017-04-06T03:28:17.027Z,54.63
2017-04-06T03:28:42.626Z,54.72
2017-04-06T03:29:08.217Z,54.91
2017-04-06T03:29:33.863Z,54.63
2017-04-06T03:29:59.423Z,54.72
2017-04-06T03:30:25.000Z,54.63
2017-04-06T03:30:50.570Z,55.01
2017-04-06T03:31:16.268Z,55.11
2017-04-06T03:31:41.829Z,54.63
2017-04-06T03:32:07.468Z,54.82
2017-04-06T03:32:33.072Z,55.01
2017-04-06T03:32:58.629Z,55.4
2017-04-06T03:33:24.164Z,54.72
2017-04-06T03:33:49.726Z,54.91
2017-04-06T03:34:15.290Z,54.91
2017-04-06T03:34:40.859Z,55.08
2017-04-06T03:35:06.429Z,55.11
2017-04-06T03:35:46.831Z,54.82
2017-04-06T03:36:12.402Z,55.01
2017-04-06T03:36:38.042Z,55.01
2017-04-06T03:37:03.712Z,54.82
2017-04-06T03:37:29.281Z,55.01
2017-04-06T03:37:54.844Z,55.01
2017-04-06T03:38:20.418Z,54.91
2017-04-06T03:38:45.959Z,54.91
2017-04-06T03:39:11.497Z,54.91
2017-04-06T03:39:37.048Z,55.01
2017-04-06T03:40:02.614Z,55.01
2017-04-06T03:40:28.181Z,55.01
2017-04-06T03:40:53.731Z,55.01
2017-04-06T03:41:19.381Z,55.01
2017-04-06T03:41:44.940Z,55.11
2017-04-06T03:42:10.665Z,55.01
2017-04-06T03:42:36.258Z,54.91
2017-04-06T03:43:01.812Z,55.01
2017-04-06T03:43:27.477Z,55.01
2017-04-06T03:43:53.039Z,54.79
2017-04-06T03:44:18.591Z,55.2
2017-04-06T03:44:44.154Z,55.11
2017-04-06T03:45:09.717Z,55.18
2017-04-06T03:45:35.307Z,54.91
2017-04-06T03:46:00.832Z,55.01
2017-04-06T03:46:26.419Z,55.01
2017-04-06T03:46:51.992Z,55.2
2017-04-06T03:47:17.597Z,55.2
2017-04-06T03:47:43.183Z,54.91
2017-04-06T03:48:08.749Z,55.2
2017-04-06T03:48:34.451Z,54.91
2017-04-06T03:49:00.023Z,54.91
2017-04-06T03:49:25.589Z,54.79
2017-04-06T03:49:51.290Z,54.91
2017-04-06T03:50:16.856Z,55.2
2017-04-06T03:50:42.428Z,55.01
2017-04-06T03:51:07.980Z,54.91
2017-04-06T03:51:33.560Z,55.01
2017-04-06T03:51:59.127Z,55.01
2017-04-06T03:52:24.684Z,55.01
2017-04-06T03:52:50.270Z,55.01
2017-04-06T03:53:15.843Z,55.18
2017-04-06T03:53:41.462Z,55.01
2017-04-06T03:54:07.026Z,54.99
2017-04-06T03:54:32.599Z,55.01
2017-04-06T03:54:58.254Z,54.91
2017-04-06T03:55:23.821Z,54.91
2017-04-06T03:55:49.434Z,55.01
2017-04-06T03:56:14.938Z,55.01
2017-04-06T03:56:40.625Z,55.01
2017-04-06T03:57:06.202Z,55.11
2017-04-06T03:57:31.742Z,55.01
2017-04-06T03:57:57.421Z,55.01
2017-04-06T03:58:22.955Z,55.01
2017-04-06T03:58:48.499Z,55.01
2017-04-06T03:59:14.039Z,54.91
2017-04-06T03:59:39.591Z,55.01
2017-04-06T04:00:05.138Z,54.91
2017-04-06T04:00:30.719Z,55.01
2017-04-06T04:00:56.291Z,54.91
2017-04-06T04:01:21.902Z,55.01
2017-04-06T04:01:47.461Z,55.11
2017-04-06T04:02:13.039Z,55.01
2017-04-06T04:02:38.610Z,55.01
2017-04-06T04:03:04.175Z,54.91
2017-04-06T04:03:29.882Z,55.01
2017-04-06T04:03:55.438Z,55.01
2017-04-06T04:04:21.000Z,55.11
2017-04-06T04:04:46.579Z,55.01
2017-04-06T04:05:12.146Z,55.11
2017-04-06T04:05:37.702Z,55.08
2017-04-06T04:06:03.276Z,55.01
2017-04-06T04:06:28.847Z,54.91
2017-04-06T04:06:54.391Z,54.91
2017-04-06T04:07:20.032Z,55.01
2017-04-06T04:07:45.571Z,54.99
2017-04-06T04:08:11.128Z,55.01
2017-04-06T04:08:36.699Z,55.01
2017-04-06T04:09:02.329Z,55.01
2017-04-06T04:09:27.885Z,54.91
2017-04-06T04:09:53.424Z,54.91
2017-04-06T04:10:18.976Z,54.89
2017-04-06T04:10:44.528Z,54.91
2017-04-06T04:11:10.082Z,55.01
2017-04-06T04:11:35.648Z,55.01
2017-04-06T04:12:17.943Z,55.08
2017-04-06T04:14:34.315Z,55.11
2017-04-06T04:14:59.862Z,54.82
2017-04-06T04:15:25.434Z,55.11
2017-04-06T04:15:50.991Z,55.11
2017-04-06T04:16:16.549Z,54.99
2017-04-06T04:16:42.120Z,55.01
2017-04-06T04:17:07.675Z,55.01
2017-04-06T04:17:33.234Z,55.01
2017-04-06T04:17:58.793Z,54.99
2017-04-06T04:18:24.340Z,55.01
2017-04-06T04:18:49.912Z,55.11
2017-04-06T04:19:15.502Z,55.11
2017-04-06T04:19:41.072Z,55.08
2017-04-06T04:20:06.652Z,55.2
2017-04-06T04:21:20.610Z,55.2
2017-04-06T04:21:46.183Z,55.01
2017-04-06T04:22:11.740Z,55.01
2017-04-06T04:22:37.299Z,55.01
2017-04-06T04:23:02.864Z,54.91
2017-04-06T04:23:28.410Z,55.01
2017-04-06T04:23:53.951Z,55.01
2017-04-06T04:24:19.531Z,55.2
2017-04-06T04:24:45.112Z,55.01
2017-04-06T04:25:10.673Z,55.46
2017-04-06T04:25:38.182Z,55.46
2017-04-06T04:30:36.858Z,55.37
2017-04-06T04:31:07.483Z,55.27
2017-04-06T04:31:32.852Z,55.01
2017-04-06T04:31:58.480Z,55.46
2017-04-06T04:32:24.032Z,55.46
2017-04-06T04:32:49.598Z,55.27
2017-04-06T04:33:16.987Z,55.49
2017-04-06T04:34:29.665Z,54.99
2017-04-06T04:35:43.391Z,55.08
2017-04-06T04:36:08.971Z,54.99
2017-04-06T04:36:34.546Z,54.99
2017-04-06T04:37:00.103Z,55.2
2017-04-06T04:37:25.662Z,55.08
2017-04-06T04:37:51.279Z,55.46
2017-04-06T04:38:16.843Z,55.11
2017-04-06T04:38:42.393Z,54.99
2017-04-06T04:39:07.937Z,54.99
2017-04-06T04:39:33.480Z,55.18
2017-04-06T04:39:59.033Z,55.08
2017-04-06T04:40:24.661Z,55.18
2017-04-06T04:40:50.200Z,55.4
2017-04-06T04:41:15.785Z,55.27
2017-04-06T04:41:41.334Z,55.37
2017-04-06T04:42:06.891Z,55.4
2017-04-06T04:42:32.446Z,55.4
2017-04-06T04:42:58.042Z,55.49
2017-04-06T04:43:23.602Z,55.3
2017-04-06T04:43:49.156Z,55.49
2017-04-06T04:44:14.745Z,55.49
2017-04-06T04:44:40.300Z,55.4
2017-04-06T04:45:05.873Z,55.49
2017-04-06T04:45:31.422Z,55.49
2017-04-06T04:45:57.047Z,55.27
2017-04-06T04:46:22.653Z,55.3
2017-04-06T04:46:48.202Z,55.37
2017-04-06T04:47:13.757Z,55.3
2017-04-06T04:47:39.441Z,55.37
2017-04-06T04:48:04.996Z,55.27
2017-04-06T04:48:30.572Z,55.08
2017-04-06T04:48:56.160Z,55.4
2017-04-06T04:49:21.740Z,55.27
2017-04-06T04:49:47.291Z,55.49
2017-04-06T04:50:12.858Z,55.27
2017-04-06T04:50:38.429Z,55.37
2017-04-06T04:51:04.028Z,55.3
2017-04-06T04:51:29.588Z,55.37
2017-04-06T04:51:55.140Z,55.3
2017-04-06T04:52:20.701Z,55.27
2017-04-06T04:52:46.290Z,54.99
2017-04-06T04:53:11.835Z,55.08
2017-04-06T04:53:37.463Z,55.18
2017-04-06T04:54:03.078Z,55.27
2017-04-06T04:54:28.646Z,54.99
2017-04-06T04:54:54.188Z,55.08
2017-04-06T04:55:19.740Z,55.18
2017-04-06T04:55:45.411Z,54.99
2017-04-06T04:56:10.985Z,55.18
2017-04-06T04:56:36.601Z,55.27
2017-04-06T04:57:02.170Z,55.27
2017-04-06T04:57:27.731Z,55.27
2017-04-06T04:57:53.279Z,55.27
2017-04-06T04:58:18.847Z,55.08
2017-04-06T04:58:44.433Z,55.18
2017-04-06T04:59:09.998Z,55.27
2017-04-06T04:59:35.560Z,55.46
2017-04-06T05:00:01.164Z,55.46
2017-04-06T05:00:26.744Z,54.99
2017-04-06T05:00:52.310Z,55.37
2017-04-06T05:01:17.889Z,55.18
2017-04-06T05:01:43.445Z,55.27
2017-04-06T05:02:09.026Z,55.27
2017-04-06T05:02:34.603Z,55.27
2017-04-06T05:03:00.156Z,55.27
2017-04-06T05:03:25.720Z,55.37
2017-04-06T05:03:51.278Z,55.37
2017-04-06T05:04:16.849Z,55.85
2017-04-06T05:04:42.432Z,55.76
2017-04-06T05:05:08.113Z,55.94
2017-04-06T05:05:33.675Z,55.94
2017-04-06T05:05:59.241Z,55.56
2017-04-06T05:06:24.822Z,55.76
2017-04-06T05:06:50.393Z,55.76
2017-04-06T05:07:16.025Z,55.76
2017-04-06T05:07:41.592Z,55.56
2017-04-06T05:08:07.161Z,55.56
2017-04-06T05:08:32.725Z,55.76
2017-04-06T05:08:58.305Z,55.56
2017-04-06T05:09:23.872Z,55.56
2017-04-06T05:09:49.430Z,55.94
2017-04-06T05:10:15.016Z,55.76
2017-04-06T05:10:40.600Z,55.76
2017-04-06T05:11:06.159Z,55.94
2017-04-06T05:11:31.730Z,55.94
2017-04-06T05:11:57.300Z,55.94
2017-04-06T05:12:22.861Z,55.94
2017-04-06T05:12:48.419Z,55.37
2017-04-06T05:13:14.061Z,55.56
2017-04-06T05:13:39.620Z,55.46
2017-04-06T05:14:05.195Z,55.37
2017-04-06T05:14:30.753Z,55.37
2017-04-06T05:14:56.313Z,55.18
2017-04-06T05:15:21.962Z,55.08
2017-04-06T05:15:47.513Z,55.18
2017-04-06T05:16:13.101Z,55.27
2017-04-06T05:16:38.680Z,55.27
2017-04-06T05:17:04.250Z,55.46
2017-04-06T05:17:29.808Z,55.27
2017-04-06T05:17:55.518Z,55.27
2017-04-06T05:18:21.250Z,55.18
2017-04-06T05:18:46.813Z,55.27
2017-04-06T05:19:12.383Z,55.27
2017-04-06T05:19:37.975Z,55.37
2017-04-06T05:20:03.533Z,55.08
2017-04-06T05:20:29.096Z,54.99
2017-04-06T05:21:37.741Z,54.99
2017-04-06T05:22:03.291Z,55.08
2017-04-06T05:22:28.860Z,55.18
2017-04-06T05:22:54.414Z,54.99
2017-04-06T05:23:19.984Z,54.99
2017-04-06T05:23:45.538Z,54.99
2017-04-06T05:24:11.105Z,55.08
2017-04-06T05:24:36.675Z,55.18
2017-04-06T05:25:02.278Z,55.08
2017-04-06T05:25:27.841Z,55.18
2017-04-06T05:25:53.396Z,55.46
2017-04-06T05:26:18.970Z,55.27
2017-04-06T05:26:44.526Z,55.18
2017-04-06T05:27:10.204Z,55.18
2017-04-06T05:27:35.782Z,55.27
2017-04-06T05:28:01.347Z,55.27
2017-04-06T05:28:26.888Z,55.18
2017-04-06T05:28:52.458Z,54.79
2017-04-06T05:29:18.027Z,55.08
2017-04-06T05:29:43.585Z,54.99
2017-04-06T05:30:09.159Z,54.99
2017-04-06T05:30:34.722Z,54.41
2017-04-06T05:31:00.292Z,54.6
2017-04-06T05:31:25.847Z,54.69
2017-04-06T05:31:51.408Z,54.6
2017-04-06T05:32:17.146Z,54.6
2017-04-06T05:32:42.716Z,54.6
2017-04-06T05:33:08.314Z,54.6
2017-04-06T05:33:33.872Z,54.22
2017-04-06T05:33:59.462Z,54.41
2017-04-06T05:34:25.055Z,54.22
2017-04-06T05:34:50.605Z,54.41
2017-04-06T05:35:16.233Z,54.31
2017-04-06T05:35:41.792Z,54.5
2017-04-06T05:36:07.339Z,54.31
2017-04-06T05:36:32.888Z,54.22
2017-04-06T05:36:58.428Z,54.5
2017-04-06T05:37:24.005Z,54.41
2017-04-06T05:37:49.639Z,54.5
2017-04-06T05:38:15.207Z,54.12
2017-04-06T05:38:40.749Z,54.02
2017-04-06T05:39:06.430Z,53.54
2017-04-06T05:39:32.076Z,53.92
2017-04-06T05:39:57.650Z,53.54
2017-04-06T05:40:23.430Z,53.92
2017-04-06T05:40:49.021Z,53.45
2017-04-06T05:41:14.539Z,53.92
2017-04-06T05:41:40.175Z,53.74
2017-04-06T05:42:05.754Z,53.64
2017-04-06T05:42:31.305Z,53.54
2017-04-06T05:42:56.848Z,53.83
2017-04-06T05:43:22.440Z,53.64
2017-04-06T05:43:47.994Z,53.64
2017-04-06T05:44:13.599Z,53.64
2017-04-06T05:44:39.155Z,54.02
2017-04-06T05:45:04.719Z,53.83
2017-04-06T05:45:30.341Z,53.45
2017-04-06T05:45:55.906Z,53.54
2017-04-06T05:46:21.496Z,53.64
2017-04-06T05:46:47.152Z,54.31
2017-04-06T05:47:12.722Z,53.74
2017-04-06T05:47:38.542Z,53.64
2017-04-06T05:48:04.141Z,53.64
2017-04-06T05:48:29.717Z,54.22
2017-04-06T05:48:55.420Z,54.22
2017-04-06T05:49:53.857Z,53.45
2017-04-06T05:50:19.420Z,53.74
2017-04-06T05:50:45.013Z,53.54
2017-04-06T05:51:10.739Z,53.54
2017-04-06T05:51:36.287Z,53.83
2017-04-06T05:52:01.855Z,53.74
2017-04-06T05:52:27.413Z,53.83
2017-04-06T05:52:52.991Z,54.22
2017-04-06T05:53:18.551Z,53.74
2017-04-06T05:53:44.237Z,53.54
2017-04-06T05:54:09.820Z,54.12
2017-04-06T05:54:35.384Z,53.74
2017-04-06T05:55:01.005Z,53.74
2017-04-06T05:55:26.599Z,53.83
2017-04-06T05:55:52.129Z,53.83
2017-04-06T05:56:17.681Z,53.64
2017-04-06T05:56:43.231Z,53.74
2017-04-06T05:57:08.764Z,53.54
2017-04-06T05:57:34.383Z,53.64
2017-04-06T05:58:00.059Z,53.45
2017-04-06T05:58:25.649Z,53.45
2017-04-06T05:58:51.209Z,53.74
2017-04-06T05:59:16.820Z,53.92
2017-04-06T05:59:42.379Z,53.45
2017-04-06T06:00:07.944Z,53.35
2017-04-06T06:00:33.537Z,53.45
2017-04-06T06:01:32.016Z,53.16
2017-04-06T06:01:57.598Z,53.35
2017-04-06T06:02:23.263Z,53.54
2017-04-06T06:02:48.836Z,53.64
2017-04-06T06:03:14.462Z,53.35
2017-04-06T06:03:40.039Z,53.06
2017-04-06T06:04:05.767Z,53.06
2017-04-06T06:04:31.382Z,53.45
2017-04-06T06:04:56.927Z,53.35
2017-04-06T06:06:05.436Z,53.06
2017-04-06T06:06:31.003Z,52.97
2017-04-06T06:06:56.742Z,52.97
2017-04-06T06:07:22.322Z,53.06
2017-04-06T06:07:47.901Z,53.16
2017-04-06T06:08:13.619Z,52.97
2017-04-06T06:08:39.193Z,53.16
2017-04-06T06:09:04.777Z,52.97
2017-04-06T06:09:30.353Z,52.87
2017-04-06T06:09:55.939Z,52.97
2017-04-06T06:10:21.580Z,53.06
2017-04-06T06:10:47.135Z,53.16
2017-04-06T06:11:12.823Z,52.97
2017-04-06T06:11:38.522Z,53.16
2017-04-06T06:12:04.125Z,52.68
2017-04-06T06:12:29.804Z,53.06
2017-04-06T06:12:55.430Z,52.97
2017-04-06T06:13:20.996Z,52.87
2017-04-06T06:13:46.642Z,52.97
2017-04-06T06:14:12.197Z,52.77
2017-04-06T06:14:37.812Z,53.06
2017-04-06T06:15:03.428Z,52.97
2017-04-06T06:15:28.981Z,53.16
2017-04-06T06:15:54.598Z,53.16
2017-04-06T06:16:20.176Z,52.87
2017-04-06T06:16:45.781Z,52.97
2017-04-06T06:17:11.439Z,53.25
2017-04-06T06:17:37.031Z,53.25
2017-04-06T06:18:02.784Z,53.06
2017-04-06T06:18:28.325Z,52.97
2017-04-06T06:18:53.948Z,52.68
2017-04-06T06:19:19.620Z,52.68
2017-04-06T06:19:45.178Z,52.48
2017-04-06T06:20:10.808Z,52.48
2017-04-06T06:20:36.388Z,52.48
2017-04-06T06:21:01.925Z,52.87
2017-04-06T06:21:27.548Z,52.58
2017-04-06T06:21:53.274Z,52.58
2017-04-06T06:23:07.347Z,52.77
2017-04-06T06:23:33.935Z,52.58
2017-04-06T06:23:59.572Z,52.58
2017-04-06T06:24:25.124Z,52.77
2017-04-06T06:24:50.753Z,52.58
2017-04-06T06:25:16.313Z,52.68
2017-04-06T06:25:41.930Z,52.58
2017-04-06T06:26:07.565Z,52.48
2017-04-06T06:26:33.154Z,52.68
2017-04-06T06:26:58.746Z,52.97
2017-04-06T06:27:24.312Z,52.58
2017-04-06T06:27:49.975Z,52.77
2017-04-06T06:28:15.589Z,52.97
2017-04-06T06:28:41.182Z,52.87
2017-04-06T06:29:06.804Z,52.97
2017-04-06T06:29:32.452Z,52.97
2017-04-06T06:29:58.091Z,52.97
2017-04-06T06:30:23.785Z,52.97
2017-04-06T06:30:49.338Z,52.2
2017-04-06T06:31:15.029Z,52.77
2017-04-06T06:31:40.809Z,53.06
2017-04-06T06:32:06.391Z,52.68
2017-04-06T06:32:32.050Z,52.97
2017-04-06T06:32:57.720Z,52.29
2017-04-06T06:33:23.276Z,52.29
2017-04-06T06:34:37.090Z,52.2
2017-04-06T06:35:02.770Z,52.2
2017-04-06T06:35:28.403Z,52.1
2017-04-06T06:36:37.122Z,51.91
2017-04-06T06:37:02.777Z,52
2017-04-06T06:37:28.361Z,51.91
2017-04-06T06:37:53.981Z,51.81
2017-04-06T06:38:19.553Z,52.1
2017-04-06T06:38:45.197Z,52.2
2017-04-06T06:39:10.937Z,52.39
2017-04-06T06:39:36.459Z,51.81
2017-04-06T06:40:02.136Z,52.29
2017-04-06T06:40:27.802Z,51.81
2017-04-06T06:40:53.478Z,52.1
2017-04-06T06:41:19.261Z,52
2017-04-06T06:41:44.880Z,51.72
2017-04-06T06:42:10.426Z,52.48
2017-04-06T06:42:36.103Z,51.81
2017-04-06T06:43:01.687Z,52.2
2017-04-06T06:43:27.354Z,52.2
2017-04-06T06:43:52.980Z,52.2
2017-04-06T06:44:46.613Z,52.1
2017-04-06T06:45:44.743Z,52.29
2017-04-06T06:46:10.318Z,51.81
2017-04-06T06:46:35.922Z,51.91
2017-04-06T06:47:01.600Z,51.72
2017-04-06T06:47:27.286Z,52
2017-04-06T06:47:53.089Z,51.72
2017-04-06T06:48:18.641Z,52.58
2017-04-06T06:48:44.285Z,52
2017-04-06T06:49:09.868Z,51.91
2017-04-06T06:49:35.430Z,52
2017-04-06T06:50:01.099Z,52
2017-04-06T06:50:26.654Z,52.39
2017-04-06T06:50:52.262Z,51.69
2017-04-06T06:51:17.826Z,52.68
2017-04-06T06:51:43.485Z,52.68
2017-04-06T06:52:09.044Z,52.2
2017-04-06T06:52:34.614Z,51.91
2017-04-06T06:53:00.178Z,52.2
2017-04-06T06:53:25.780Z,52.1
2017-04-06T06:53:51.430Z,52.1
2017-04-06T06:54:17.109Z,52.2
2017-04-06T06:54:42.674Z,52.1
2017-04-06T06:55:08.500Z,52.2
2017-04-06T06:55:34.111Z,51.91
2017-04-06T06:55:59.694Z,52.1
2017-04-06T06:56:25.351Z,52.1
2017-04-06T06:56:51.251Z,51.79
2017-04-06T06:57:16.824Z,51.81
2017-04-06T06:57:42.465Z,51.72
2017-04-06T06:58:08.130Z,51.91
2017-04-06T06:58:33.700Z,51.79
2017-04-06T06:58:59.354Z,51.98
2017-04-06T06:59:24.918Z,51.79
2017-04-06T06:59:50.590Z,51.72
2017-04-06T07:00:16.145Z,52.1
2017-04-06T07:00:41.724Z,52.17
2017-04-06T07:01:07.286Z,51.69
2017-04-06T07:01:32.943Z,51.81
2017-04-06T07:01:58.582Z,51.53
2017-04-06T07:02:24.266Z,51.4
2017-04-06T07:02:49.951Z,51.79
2017-04-06T07:03:15.563Z,51.79
2017-04-06T07:03:41.327Z,51.79
2017-04-06T07:04:07.064Z,51.81
2017-04-06T07:04:32.709Z,51.81
2017-04-06T07:04:58.387Z,51.53
2017-04-06T07:05:23.952Z,51.79
2017-04-06T07:05:49.609Z,51.72
2017-04-06T07:06:15.224Z,51.69
2017-04-06T07:07:18.880Z,51.53
2017-04-06T07:08:22.073Z,51.81
2017-04-06T07:08:47.681Z,51.81
2017-04-06T07:09:13.325Z,51.53
2017-04-06T07:09:38.880Z,51.72
2017-04-06T07:10:04.552Z,51.81
2017-04-06T07:10:30.110Z,51.79
2017-04-06T07:10:55.754Z,51.72
2017-04-06T07:11:21.377Z,51.91
2017-04-06T07:11:46.937Z,51.72
2017-04-06T07:12:12.612Z,51.72
2017-04-06T07:12:38.180Z,51.81
2017-04-06T07:13:03.774Z,51.72
2017-04-06T07:13:29.341Z,51.81
2017-04-06T07:13:54.936Z,51.62
2017-04-06T07:14:20.614Z,51.72
2017-04-06T07:14:46.165Z,51.81
2017-04-06T07:15:11.796Z,51.81
2017-04-06T07:17:08.201Z,51.72
2017-04-06T07:17:33.844Z,51.33
2017-04-06T07:17:59.453Z,51.72
2017-04-06T07:18:25.022Z,51.72
2017-04-06T07:18:50.675Z,51.72
2017-04-06T07:19:16.299Z,51.81
2017-04-06T07:19:41.910Z,51.53
2017-04-06T07:20:07.509Z,51.81
2017-04-06T07:20:33.082Z,51.81
2017-04-06T07:20:58.715Z,51.72
2017-04-06T07:21:24.257Z,51.81
2017-04-06T07:21:49.861Z,51.91
2017-04-06T07:22:15.437Z,51.62
2017-04-06T07:22:41.075Z,52
2017-04-06T07:23:06.698Z,51.81
2017-04-06T07:23:32.252Z,51.62
2017-04-06T07:23:57.990Z,51.43
2017-04-06T07:24:23.563Z,51.33
2017-04-06T07:24:49.116Z,51.81
2017-04-06T07:25:14.671Z,51.62
2017-04-06T07:25:40.222Z,51.91
2017-04-06T07:26:05.909Z,51.81
2017-04-06T07:26:31.552Z,52.1
2017-04-06T07:26:57.046Z,51.91
2017-04-06T07:27:22.726Z,51.81
2017-04-06T07:27:48.291Z,51.62
2017-04-06T07:28:13.894Z,51.81
2017-04-06T07:28:39.459Z,51.81
2017-04-06T07:29:05.104Z,51.62
2017-04-06T07:29:30.722Z,51.72
2017-04-06T07:29:56.272Z,52
2017-04-06T07:30:21.852Z,52.1
2017-04-06T07:30:47.453Z,51.91
2017-04-06T07:31:13.088Z,51.91
2017-04-06T07:31:38.770Z,52
2017-04-06T07:32:04.342Z,52.1
2017-04-06T07:32:30.059Z,52.29
2017-04-06T07:32:55.846Z,52.2
2017-04-06T07:33:21.388Z,52
2017-04-06T07:33:46.991Z,51.91
2017-04-06T07:34:12.724Z,51.91
2017-04-06T07:34:38.289Z,51.91
2017-04-06T07:35:04.001Z,52
2017-04-06T07:35:29.681Z,52.2
2017-04-06T07:35:55.163Z,52.29
2017-04-06T07:36:20.935Z,51.81
2017-04-06T07:37:14.590Z,52.39
2017-04-06T07:37:40.289Z,51.91
2017-04-06T07:38:05.856Z,52.1
2017-04-06T07:38:31.435Z,52.2
2017-04-06T07:38:57.042Z,52.2
2017-04-06T07:39:22.600Z,51.91
2017-04-06T07:39:48.198Z,52.48
2017-04-06T07:40:13.764Z,52.39
2017-04-06T07:40:39.313Z,52
2017-04-06T07:41:04.945Z,52.68
2017-04-06T07:41:30.570Z,52.08
2017-04-06T07:41:56.226Z,52.68
2017-04-06T07:42:21.802Z,51.81
2017-04-06T07:42:47.361Z,51.72
2017-04-06T07:43:12.952Z,52.58
2017-04-06T07:43:38.519Z,51.79
2017-04-06T07:44:04.200Z,51.72
2017-04-06T07:44:29.811Z,51.81
2017-04-06T07:45:28.240Z,51.72
2017-04-06T07:45:54.585Z,52.29
2017-04-06T07:46:20.259Z,51.53
2017-04-06T07:46:45.867Z,51.72
2017-04-06T07:47:11.428Z,52.29
2017-04-06T07:47:36.998Z,51.53
2017-04-06T07:48:02.627Z,52.1
2017-04-06T07:48:28.212Z,52.29
2017-04-06T07:48:53.771Z,51.72
2017-04-06T07:49:19.333Z,51.5
2017-04-06T07:49:44.914Z,52.2
2017-04-06T07:50:10.473Z,52
2017-04-06T07:50:36.046Z,52.1
2017-04-06T07:51:01.606Z,52.1
2017-04-06T07:51:27.196Z,52.2
2017-04-06T07:51:52.820Z,52
2017-04-06T07:52:18.399Z,51.91
2017-04-06T07:52:43.993Z,52.2
2017-04-06T07:53:09.580Z,52
2017-04-06T07:53:35.228Z,52.1
2017-04-06T07:54:00.790Z,52
2017-04-06T07:54:26.430Z,51.91
2017-04-06T07:54:52.160Z,52
2017-04-06T07:55:17.993Z,52
2017-04-06T07:55:43.579Z,51.81
2017-04-06T07:56:09.177Z,52.39
2017-04-06T07:56:34.724Z,52.39
2017-04-06T07:57:00.290Z,52.39
2017-04-06T07:57:25.852Z,51.88
2017-04-06T07:57:51.519Z,51.91
2017-04-06T07:58:17.239Z,52
2017-04-06T07:58:42.830Z,52.17
2017-04-06T07:59:46.482Z,52.39
2017-04-06T08:00:12.090Z,52.39
2017-04-06T08:00:37.791Z,52.36
2017-04-06T08:01:03.405Z,52.39
2017-04-06T08:01:28.951Z,52.1
2017-04-06T08:01:54.541Z,52.36
2017-04-06T08:02:20.208Z,52.17
2017-04-06T08:02:45.758Z,52.08
2017-04-06T08:03:11.384Z,52.29
2017-04-06T08:03:36.962Z,52.17
2017-04-06T08:04:02.534Z,52.39
2017-04-06T08:04:28.106Z,52.2
2017-04-06T08:04:53.665Z,52.29
2017-04-06T08:05:19.297Z,52.39
2017-04-06T08:05:44.857Z,52.36
2017-04-06T08:06:10.526Z,52.2
2017-04-06T08:06:36.206Z,52.75
2017-04-06T08:07:01.778Z,52.97
2017-04-06T08:07:28.011Z,53.03
2017-04-06T08:07:53.675Z,52.94
2017-04-06T08:08:19.267Z,52.87
2017-04-06T08:08:44.827Z,52.87
2017-04-06T08:09:10.514Z,52.94
2017-04-06T08:09:36.197Z,52.94
2017-04-06T08:10:01.781Z,52.97
2017-04-06T08:10:27.389Z,53.06
2017-04-06T08:10:52.947Z,53.06
2017-04-06T08:11:18.522Z,52.77
2017-04-06T08:11:44.074Z,52.75
2017-04-06T08:12:09.705Z,52.77
2017-04-06T08:12:35.329Z,52.87
2017-04-06T08:13:00.870Z,53.06
2017-04-06T08:13:26.540Z,52.87
2017-04-06T08:13:52.100Z,52.75
2017-04-06T08:14:17.709Z,52.87
2017-04-06T08:14:43.307Z,52.77
2017-04-06T08:15:08.849Z,52.87
2017-04-06T08:15:34.480Z,52.84
2017-04-06T08:16:00.039Z,52.87
2017-04-06T08:17:13.927Z,52.58
2017-04-06T08:17:39.587Z,52.77
2017-04-06T08:18:05.157Z,52.58
2017-04-06T08:18:30.855Z,52.58
2017-04-06T08:18:56.524Z,52.77
2017-04-06T08:19:33.843Z,52.77
2017-04-06T08:19:59.507Z,52.87
2017-04-06T08:20:25.071Z,52.87
2017-04-06T08:20:50.732Z,52.84
2017-04-06T08:21:16.385Z,52.87
2017-04-06T08:21:41.859Z,52.87
2017-04-06T08:22:07.457Z,52.87
2017-04-06T08:22:33.158Z,52.65
2017-04-06T08:22:58.744Z,52.58
2017-04-06T08:23:24.301Z,52.77
2017-04-06T08:23:49.983Z,52.58
2017-04-06T08:24:15.565Z,52.65
2017-04-06T08:24:41.124Z,52.65
2017-04-06T08:25:06.790Z,52.58
2017-04-06T08:25:32.441Z,52.46
2017-04-06T08:25:57.911Z,52.77
2017-04-06T08:26:23.629Z,52.84
2017-04-06T08:26:49.208Z,52.68
2017-04-06T08:27:14.853Z,52.65
2017-04-06T08:27:40.530Z,52.68
2017-04-06T08:28:06.141Z,52.68
2017-04-06T08:28:31.750Z,52.65
2017-04-06T08:28:57.318Z,52.65
2017-04-06T08:29:30.038Z,52.55
2017-04-06T08:29:55.621Z,52.75
2017-04-06T08:30:21.176Z,52.77
2017-04-06T08:30:46.790Z,52.68
2017-04-06T08:31:12.372Z,52.87
2017-04-06T08:31:38.721Z,52.77
2017-04-06T08:32:04.289Z,52.48
2017-04-06T08:32:29.863Z,52.68
2017-04-06T08:32:55.422Z,52.48
2017-04-06T08:33:20.990Z,52.39
2017-04-06T08:33:46.660Z,52.77
2017-04-06T08:34:12.205Z,52.97
2017-04-06T08:34:37.790Z,53.03
2017-04-06T08:35:03.353Z,52.87
2017-04-06T08:35:28.933Z,52.94
2017-04-06T08:35:54.473Z,52.97
2017-04-06T08:36:20.048Z,52.46
2017-04-06T08:36:45.593Z,53.16
2017-04-06T08:37:11.169Z,52.97
2017-04-06T08:37:36.840Z,52.68
2017-04-06T08:38:02.418Z,52.97
2017-04-06T08:38:28.097Z,53.25
2017-04-06T08:38:53.688Z,53.23
2017-04-06T08:39:19.263Z,53.16
2017-04-06T08:39:44.940Z,53.25
2017-04-06T08:40:10.522Z,53.16
2017-04-06T08:40:36.178Z,53.06
2017-04-06T08:41:01.881Z,53.13
2017-04-06T08:41:27.453Z,53.13
2017-04-06T08:41:53.059Z,53.25
2017-04-06T08:42:18.734Z,53.16
2017-04-06T08:42:44.308Z,52.97
2017-04-06T08:43:09.990Z,52.94
2017-04-06T08:43:35.566Z,53.03
2017-04-06T08:44:01.141Z,53.06
2017-04-06T08:44:26.718Z,52.94
2017-04-06T08:44:52.289Z,53.16
2017-04-06T08:45:17.884Z,53.03
2017-04-06T08:45:43.451Z,53.03
2017-04-06T08:46:09.088Z,52.97
2017-04-06T08:46:34.745Z,53.03
2017-04-06T08:47:00.318Z,52.94
2017-04-06T08:47:25.869Z,52.94
2017-04-06T08:47:51.450Z,52.97
2017-04-06T08:48:17.079Z,52.75
2017-04-06T08:48:42.652Z,52.84
2017-04-06T08:49:08.323Z,52.97
2017-04-06T08:49:33.991Z,53.06
2017-04-06T08:49:59.544Z,52.97
2017-04-06T08:50:26.025Z,52.94
2017-04-06T08:50:51.583Z,52.94
2017-04-06T08:51:17.198Z,52.94
2017-04-06T08:51:42.756Z,52.77
2017-04-06T08:52:08.369Z,52.77
2017-04-06T08:52:33.977Z,53.13
2017-04-06T08:52:59.547Z,52.87